sensor_id;sensor_type;location;lat;lon;timestamp;P1;durP1;ratioP1;P2;durP2;ratioP2
50773;SDS011;36745;48.544;8.918;2023-03-01T00:02:54;32.55;;;18.20;;
50773;SDS011;36745;48.544;8.918;2023-03-01T00:06:14;28.50;;;17.65;;
50773;SDS011;36745;48.544;8.918;2023-03-01T00:09:35;30.90;;;18.88;;
50773;SDS011;36745;48.544;8.918;2023-03-01T00:12:56;31.17;;;20.02;;
50773;SDS011;36745;48.544;8.918;2023-03-01T00:16:17;28.55;;;17.27;;
50773;SDS011;36745;48.544;8.918;2023-03-01T00:19:47;34.22;;;18.73;;
50773;SDS011;36745;48.544;8.918;2023-03-01T00:23:07;38.33;;;22.35;;
50773;SDS011;36745;48.544;8.918;2023-03-01T00:26:27;35.17;;;21.95;;
50773;SDS011;36745;48.544;8.918;2023-03-01T00:29:47;36.70;;;21.60;;
50773;SDS011;36745;48.544;8.918;2023-03-01T00:33:07;32.72;;;18.83;;
50773;SDS011;36745;48.544;8.918;2023-03-01T00:36:29;31.10;;;18.58;;
50773;SDS011;36745;48.544;8.918;2023-03-01T00:39:50;30.98;;;18.67;;
50773;SDS011;36745;48.544;8.918;2023-03-01T00:43:10;32.63;;;17.88;;
50773;SDS011;36745;48.544;8.918;2023-03-01T00:46:30;31.42;;;17.80;;
50773;SDS011;36745;48.544;8.918;2023-03-01T00:49:50;33.90;;;18.25;;
50773;SDS011;36745;48.544;8.918;2023-03-01T00:53:10;31.33;;;18.55;;
50773;SDS011;36745;48.544;8.918;2023-03-01T00:56:30;31.85;;;17.73;;
50773;SDS011;36745;48.544;8.918;2023-03-01T00:59:50;36.00;;;17.88;;
50773;SDS011;36745;48.544;8.918;2023-03-01T01:03:11;29.02;;;17.75;;
50773;SDS011;36745;48.544;8.918;2023-03-01T01:06:36;33.95;;;19.30;;
50773;SDS011;36745;48.544;8.918;2023-03-01T01:10:03;30.60;;;18.63;;
50773;SDS011;36745;48.544;8.918;2023-03-01T01:13:23;31.08;;;17.90;;
50773;SDS011;36745;48.544;8.918;2023-03-01T01:16:43;32.83;;;18.88;;
50773;SDS011;36745;48.544;8.918;2023-03-01T01:20:03;29.58;;;17.73;;
50773;SDS011;36745;48.544;8.918;2023-03-01T01:23:23;30.77;;;17.63;;
50773;SDS011;36745;48.544;8.918;2023-03-01T01:26:43;35.08;;;17.13;;
50773;SDS011;36745;48.544;8.918;2023-03-01T01:30:03;30.73;;;17.52;;
50773;SDS011;36745;48.544;8.918;2023-03-01T01:33:24;29.48;;;17.65;;
50773;SDS011;36745;48.544;8.918;2023-03-01T01:36:47;32.38;;;18.50;;
50773;SDS011;36745;48.544;8.918;2023-03-01T01:40:08;35.95;;;19.45;;
50773;SDS011;36745;48.544;8.918;2023-03-01T01:43:36;32.95;;;18.63;;
50773;SDS011;36745;48.544;8.918;2023-03-01T01:47:00;31.45;;;18.33;;
50773;SDS011;36745;48.544;8.918;2023-03-01T01:50:22;28.20;;;17.35;;
50773;SDS011;36745;48.544;8.918;2023-03-01T01:53:43;30.73;;;17.73;;
50773;SDS011;36745;48.544;8.918;2023-03-01T01:57:07;31.13;;;18.07;;
50773;SDS011;36745;48.544;8.918;2023-03-01T02:00:33;31.73;;;17.92;;
50773;SDS011;36745;48.544;8.918;2023-03-01T02:03:53;34.60;;;18.35;;
50773;SDS011;36745;48.544;8.918;2023-03-01T02:07:14;33.05;;;19.55;;
50773;SDS011;36745;48.544;8.918;2023-03-01T02:10:36;33.33;;;18.27;;
50773;SDS011;36745;48.544;8.918;2023-03-01T02:13:57;30.30;;;18.02;;
50773;SDS011;36745;48.544;8.918;2023-03-01T02:17:19;35.17;;;19.20;;
50773;SDS011;36745;48.544;8.918;2023-03-01T02:20:53;33.97;;;18.77;;
50773;SDS011;36745;48.544;8.918;2023-03-01T02:24:40;35.05;;;18.30;;
50773;SDS011;36745;48.544;8.918;2023-03-01T02:31:37;33.03;;;18.27;;
50773;SDS011;36745;48.544;8.918;2023-03-01T02:35:02;34.40;;;19.45;;
50773;SDS011;36745;48.544;8.918;2023-03-01T02:38:25;31.80;;;18.60;;
50773;SDS011;36745;48.544;8.918;2023-03-01T02:41:47;33.15;;;19.45;;
50773;SDS011;36745;48.544;8.918;2023-03-01T02:45:09;34.17;;;18.77;;
50773;SDS011;36745;48.544;8.918;2023-03-01T02:48:38;32.83;;;19.42;;
50773;SDS011;36745;48.544;8.918;2023-03-01T02:52:09;35.83;;;19.20;;
50773;SDS011;36745;48.544;8.918;2023-03-01T02:55:37;33.08;;;19.48;;
50773;SDS011;36745;48.544;8.918;2023-03-01T02:58:57;33.67;;;18.95;;
50773;SDS011;36745;48.544;8.918;2023-03-01T03:02:20;30.45;;;19.33;;
50773;SDS011;36745;48.544;8.918;2023-03-01T03:05:55;34.95;;;20.08;;
50773;SDS011;36745;48.544;8.918;2023-03-01T03:09:14;32.70;;;18.67;;
50773;SDS011;36745;48.544;8.918;2023-03-01T03:12:36;32.92;;;19.35;;
50773;SDS011;36745;48.544;8.918;2023-03-01T03:15:56;30.40;;;18.65;;
50773;SDS011;36745;48.544;8.918;2023-03-01T03:19:20;32.35;;;19.98;;
50773;SDS011;36745;48.544;8.918;2023-03-01T03:22:39;36.25;;;19.58;;
50773;SDS011;36745;48.544;8.918;2023-03-01T03:26:00;36.55;;;20.38;;
50773;SDS011;36745;48.544;8.918;2023-03-01T03:29:19;32.30;;;19.83;;
50773;SDS011;36745;48.544;8.918;2023-03-01T03:32:39;33.50;;;20.27;;
50773;SDS011;36745;48.544;8.918;2023-03-01T03:36:00;32.75;;;19.73;;
50773;SDS011;36745;48.544;8.918;2023-03-01T03:39:20;32.13;;;19.95;;
50773;SDS011;36745;48.544;8.918;2023-03-01T03:42:40;33.20;;;20.08;;
50773;SDS011;36745;48.544;8.918;2023-03-01T03:46:00;33.42;;;19.20;;
50773;SDS011;36745;48.544;8.918;2023-03-01T03:49:24;31.23;;;18.25;;
50773;SDS011;36745;48.544;8.918;2023-03-01T03:52:44;34.50;;;19.67;;
50773;SDS011;36745;48.544;8.918;2023-03-01T03:56:04;33.10;;;19.40;;
50773;SDS011;36745;48.544;8.918;2023-03-01T03:59:24;29.73;;;19.55;;
50773;SDS011;36745;48.544;8.918;2023-03-01T04:02:45;33.30;;;19.63;;
50773;SDS011;36745;48.544;8.918;2023-03-01T04:06:05;38.22;;;20.73;;
50773;SDS011;36745;48.544;8.918;2023-03-01T04:09:25;35.30;;;19.73;;
50773;SDS011;36745;48.544;8.918;2023-03-01T04:12:45;32.17;;;20.02;;
50773;SDS011;36745;48.544;8.918;2023-03-01T04:16:05;34.28;;;21.30;;
50773;SDS011;36745;48.544;8.918;2023-03-01T04:19:24;35.42;;;20.83;;
50773;SDS011;36745;48.544;8.918;2023-03-01T04:22:46;35.28;;;20.33;;
50773;SDS011;36745;48.544;8.918;2023-03-01T04:26:06;34.97;;;20.67;;
50773;SDS011;36745;48.544;8.918;2023-03-01T04:29:26;32.45;;;20.02;;
50773;SDS011;36745;48.544;8.918;2023-03-01T04:32:47;36.30;;;20.90;;
50773;SDS011;36745;48.544;8.918;2023-03-01T04:36:08;34.20;;;20.67;;
50773;SDS011;36745;48.544;8.918;2023-03-01T04:39:29;35.45;;;20.10;;
50773;SDS011;36745;48.544;8.918;2023-03-01T04:42:48;34.30;;;21.20;;
50773;SDS011;36745;48.544;8.918;2023-03-01T04:46:11;34.13;;;21.50;;
50773;SDS011;36745;48.544;8.918;2023-03-01T04:49:32;42.17;;;25.70;;
50773;SDS011;36745;48.544;8.918;2023-03-01T04:52:52;38.97;;;22.17;;
50773;SDS011;36745;48.544;8.918;2023-03-01T04:56:13;38.78;;;22.13;;
50773;SDS011;36745;48.544;8.918;2023-03-01T04:59:33;37.95;;;20.48;;
50773;SDS011;36745;48.544;8.918;2023-03-01T05:02:56;42.67;;;23.83;;
50773;SDS011;36745;48.544;8.918;2023-03-01T05:06:19;43.22;;;26.98;;
50773;SDS011;36745;48.544;8.918;2023-03-01T05:09:39;42.80;;;25.85;;
50773;SDS011;36745;48.544;8.918;2023-03-01T05:12:59;39.30;;;24.77;;
50773;SDS011;36745;48.544;8.918;2023-03-01T05:16:19;40.53;;;21.98;;
50773;SDS011;36745;48.544;8.918;2023-03-01T05:19:39;39.40;;;22.63;;
50773;SDS011;36745;48.544;8.918;2023-03-01T05:23:01;38.13;;;22.73;;
50773;SDS011;36745;48.544;8.918;2023-03-01T05:26:24;38.50;;;23.13;;
50773;SDS011;36745;48.544;8.918;2023-03-01T05:29:47;41.55;;;22.90;;
50773;SDS011;36745;48.544;8.918;2023-03-01T05:33:07;37.35;;;22.40;;
50773;SDS011;36745;48.544;8.918;2023-03-01T05:36:32;42.97;;;24.33;;
50773;SDS011;36745;48.544;8.918;2023-03-01T05:39:52;36.88;;;21.52;;
50773;SDS011;36745;48.544;8.918;2023-03-01T05:43:12;40.30;;;24.63;;
50773;SDS011;36745;48.544;8.918;2023-03-01T05:46:33;42.00;;;23.80;;
50773;SDS011;36745;48.544;8.918;2023-03-01T05:49:52;42.15;;;23.70;;
50773;SDS011;36745;48.544;8.918;2023-03-01T05:53:13;36.08;;;21.75;;
50773;SDS011;36745;48.544;8.918;2023-03-01T05:56:38;39.75;;;22.77;;
50773;SDS011;36745;48.544;8.918;2023-03-01T05:59:58;34.90;;;20.92;;
50773;SDS011;36745;48.544;8.918;2023-03-01T06:03:18;38.63;;;21.77;;
50773;SDS011;36745;48.544;8.918;2023-03-01T06:06:38;38.00;;;22.83;;
50773;SDS011;36745;48.544;8.918;2023-03-01T06:09:58;41.60;;;23.70;;
50773;SDS011;36745;48.544;8.918;2023-03-01T06:13:18;37.28;;;20.55;;
50773;SDS011;36745;48.544;8.918;2023-03-01T06:16:38;40.50;;;22.95;;
50773;SDS011;36745;48.544;8.918;2023-03-01T06:19:57;43.70;;;22.85;;
50773;SDS011;36745;48.544;8.918;2023-03-01T06:23:17;40.28;;;22.92;;
50773;SDS011;36745;48.544;8.918;2023-03-01T06:26:37;43.50;;;24.90;;
50773;SDS011;36745;48.544;8.918;2023-03-01T06:29:57;41.15;;;24.05;;
50773;SDS011;36745;48.544;8.918;2023-03-01T06:33:17;44.22;;;24.77;;
50773;SDS011;36745;48.544;8.918;2023-03-01T06:36:39;41.22;;;23.67;;
50773;SDS011;36745;48.544;8.918;2023-03-01T06:39:59;41.50;;;22.80;;
50773;SDS011;36745;48.544;8.918;2023-03-01T06:43:18;44.22;;;24.42;;
50773;SDS011;36745;48.544;8.918;2023-03-01T06:46:39;46.60;;;23.90;;
50773;SDS011;36745;48.544;8.918;2023-03-01T06:49:59;54.60;;;35.33;;
50773;SDS011;36745;48.544;8.918;2023-03-01T06:53:20;38.80;;;22.42;;
50773;SDS011;36745;48.544;8.918;2023-03-01T06:56:40;39.08;;;22.23;;
50773;SDS011;36745;48.544;8.918;2023-03-01T06:59:59;43.42;;;24.13;;
50773;SDS011;36745;48.544;8.918;2023-03-01T07:03:19;44.42;;;25.38;;
50773;SDS011;36745;48.544;8.918;2023-03-01T07:06:39;49.70;;;28.85;;
50773;SDS011;36745;48.544;8.918;2023-03-01T07:09:59;42.70;;;24.73;;
50773;SDS011;36745;48.544;8.918;2023-03-01T07:13:19;41.88;;;24.52;;
50773;SDS011;36745;48.544;8.918;2023-03-01T07:16:39;41.03;;;23.23;;
50773;SDS011;36745;48.544;8.918;2023-03-01T07:19:58;41.78;;;23.17;;
50773;SDS011;36745;48.544;8.918;2023-03-01T07:23:18;42.97;;;22.58;;
50773;SDS011;36745;48.544;8.918;2023-03-01T07:26:38;36.97;;;21.48;;
50773;SDS011;36745;48.544;8.918;2023-03-01T07:29:58;41.63;;;23.23;;
50773;SDS011;36745;48.544;8.918;2023-03-01T07:33:18;37.38;;;21.80;;
50773;SDS011;36745;48.544;8.918;2023-03-01T07:36:38;37.95;;;23.52;;
50773;SDS011;36745;48.544;8.918;2023-03-01T07:39:58;40.83;;;23.23;;
50773;SDS011;36745;48.544;8.918;2023-03-01T07:43:18;39.13;;;22.27;;
50773;SDS011;36745;48.544;8.918;2023-03-01T07:46:39;34.03;;;21.17;;
50773;SDS011;36745;48.544;8.918;2023-03-01T07:49:59;41.25;;;22.75;;
50773;SDS011;36745;48.544;8.918;2023-03-01T07:53:20;35.10;;;20.88;;
50773;SDS011;36745;48.544;8.918;2023-03-01T07:56:40;36.05;;;20.65;;
50773;SDS011;36745;48.544;8.918;2023-03-01T08:00:00;32.28;;;20.30;;
50773;SDS011;36745;48.544;8.918;2023-03-01T08:03:19;34.95;;;21.40;;
50773;SDS011;36745;48.544;8.918;2023-03-01T08:06:39;35.28;;;21.92;;
50773;SDS011;36745;48.544;8.918;2023-03-01T08:09:59;37.80;;;22.38;;
50773;SDS011;36745;48.544;8.918;2023-03-01T08:13:18;38.03;;;22.30;;
50773;SDS011;36745;48.544;8.918;2023-03-01T08:16:41;36.58;;;20.58;;
50773;SDS011;36745;48.544;8.918;2023-03-01T08:20:01;37.58;;;22.48;;
50773;SDS011;36745;48.544;8.918;2023-03-01T08:23:23;39.83;;;23.48;;
50773;SDS011;36745;48.544;8.918;2023-03-01T08:26:43;37.30;;;22.55;;
50773;SDS011;36745;48.544;8.918;2023-03-01T08:30:03;40.83;;;23.85;;
50773;SDS011;36745;48.544;8.918;2023-03-01T08:33:23;38.22;;;23.33;;
50773;SDS011;36745;48.544;8.918;2023-03-01T08:36:44;36.33;;;21.52;;
50773;SDS011;36745;48.544;8.918;2023-03-01T08:40:05;41.63;;;24.02;;
50773;SDS011;36745;48.544;8.918;2023-03-01T08:43:29;42.33;;;24.80;;
50773;SDS011;36745;48.544;8.918;2023-03-01T08:46:49;41.53;;;24.67;;
50773;SDS011;36745;48.544;8.918;2023-03-01T08:50:10;40.00;;;21.70;;
50773;SDS011;36745;48.544;8.918;2023-03-01T08:53:30;38.40;;;18.90;;
50773;SDS011;36745;48.544;8.918;2023-03-01T08:56:49;42.78;;;22.90;;
50773;SDS011;36745;48.544;8.918;2023-03-01T09:00:10;39.35;;;22.85;;
50773;SDS011;36745;48.544;8.918;2023-03-01T09:03:33;38.58;;;21.10;;
50773;SDS011;36745;48.544;8.918;2023-03-01T09:06:53;37.25;;;22.95;;
50773;SDS011;36745;48.544;8.918;2023-03-01T09:10:13;35.80;;;20.30;;
50773;SDS011;36745;48.544;8.918;2023-03-01T09:13:33;39.47;;;23.55;;
50773;SDS011;36745;48.544;8.918;2023-03-01T09:16:53;38.05;;;23.35;;
50773;SDS011;36745;48.544;8.918;2023-03-01T09:20:13;35.28;;;21.20;;
50773;SDS011;36745;48.544;8.918;2023-03-01T09:23:36;35.95;;;22.42;;
50773;SDS011;36745;48.544;8.918;2023-03-01T09:26:58;41.05;;;24.92;;
50773;SDS011;36745;48.544;8.918;2023-03-01T09:30:18;43.08;;;21.92;;
50773;SDS011;36745;48.544;8.918;2023-03-01T09:33:38;36.65;;;21.40;;
50773;SDS011;36745;48.544;8.918;2023-03-01T09:36:58;39.42;;;22.25;;
50773;SDS011;36745;48.544;8.918;2023-03-01T09:40:20;45.60;;;22.70;;
50773;SDS011;36745;48.544;8.918;2023-03-01T09:43:53;36.58;;;22.98;;
50773;SDS011;36745;48.544;8.918;2023-03-01T09:47:25;35.42;;;21.33;;
50773;SDS011;36745;48.544;8.918;2023-03-01T09:50:48;35.97;;;22.67;;
50773;SDS011;36745;48.544;8.918;2023-03-01T09:54:08;36.08;;;22.65;;
50773;SDS011;36745;48.544;8.918;2023-03-01T09:57:33;35.53;;;22.42;;
50773;SDS011;36745;48.544;8.918;2023-03-01T10:01:43;51.30;;;24.90;;
50773;SDS011;36745;48.544;8.918;2023-03-01T10:05:05;31.50;;;18.08;;
50773;SDS011;36745;48.544;8.918;2023-03-01T10:08:53;36.17;;;22.02;;
50773;SDS011;36745;48.544;8.918;2023-03-01T10:12:17;32.35;;;20.40;;
50773;SDS011;36745;48.544;8.918;2023-03-01T10:15:56;35.20;;;22.13;;
50773;SDS011;36745;48.544;8.918;2023-03-01T10:19:32;33.88;;;21.13;;
50773;SDS011;36745;48.544;8.918;2023-03-01T10:22:53;35.13;;;21.60;;
50773;SDS011;36745;48.544;8.918;2023-03-01T10:29:52;39.08;;;22.27;;
50773;SDS011;36745;48.544;8.918;2023-03-01T10:33:29;39.50;;;23.08;;
50773;SDS011;36745;48.544;8.918;2023-03-01T10:36:55;33.17;;;18.85;;
50773;SDS011;36745;48.544;8.918;2023-03-01T10:40:18;33.20;;;20.13;;
50773;SDS011;36745;48.544;8.918;2023-03-01T10:43:45;35.92;;;22.33;;
50773;SDS011;36745;48.544;8.918;2023-03-01T10:47:12;34.33;;;19.60;;
50773;SDS011;36745;48.544;8.918;2023-03-01T10:50:40;40.35;;;20.15;;
50773;SDS011;36745;48.544;8.918;2023-03-01T10:54:09;36.20;;;22.70;;
50773;SDS011;36745;48.544;8.918;2023-03-01T10:58:28;36.70;;;22.23;;
50773;SDS011;36745;48.544;8.918;2023-03-01T11:01:41;33.80;;;19.67;;
50773;SDS011;36745;48.544;8.918;2023-03-01T11:08:47;35.55;;;21.10;;
50773;SDS011;36745;48.544;8.918;2023-03-01T11:12:13;33.35;;;20.83;;
50773;SDS011;36745;48.544;8.918;2023-03-01T11:15:35;36.92;;;20.52;;
50773;SDS011;36745;48.544;8.918;2023-03-01T11:18:56;37.33;;;21.38;;
50773;SDS011;36745;48.544;8.918;2023-03-01T11:22:18;34.85;;;21.77;;
50773;SDS011;36745;48.544;8.918;2023-03-01T11:25:41;34.05;;;21.90;;
50773;SDS011;36745;48.544;8.918;2023-03-01T11:29:03;32.45;;;20.95;;
50773;SDS011;36745;48.544;8.918;2023-03-01T11:36:01;30.13;;;18.00;;
50773;SDS011;36745;48.544;8.918;2023-03-01T11:53:51;30.27;;;20.85;;
50773;SDS011;36745;48.544;8.918;2023-03-01T11:57:20;30.88;;;19.85;;
50773;SDS011;36745;48.544;8.918;2023-03-01T12:04:27;32.80;;;20.05;;
50773;SDS011;36745;48.544;8.918;2023-03-01T12:08:20;30.35;;;21.35;;
50773;SDS011;36745;48.544;8.918;2023-03-01T12:11:50;28.42;;;19.95;;
50773;SDS011;36745;48.544;8.918;2023-03-01T12:15:45;29.48;;;20.25;;
50773;SDS011;36745;48.544;8.918;2023-03-01T12:19:24;28.58;;;19.65;;
50773;SDS011;36745;48.544;8.918;2023-03-01T12:33:45;27.58;;;20.05;;
50773;SDS011;36745;48.544;8.918;2023-03-01T12:51:56;24.02;;;16.65;;
50773;SDS011;36745;48.544;8.918;2023-03-01T12:58:42;25.52;;;17.83;;
50773;SDS011;36745;48.544;8.918;2023-03-01T13:02:25;23.60;;;17.00;;
50773;SDS011;36745;48.544;8.918;2023-03-01T13:13:24;24.60;;;17.35;;
50773;SDS011;36745;48.544;8.918;2023-03-01T13:16:45;28.77;;;19.88;;
50773;SDS011;36745;48.544;8.918;2023-03-01T13:20:15;37.25;;;21.92;;
50773;SDS011;36745;48.544;8.918;2023-03-01T13:23:37;28.85;;;19.10;;
50773;SDS011;36745;48.544;8.918;2023-03-01T13:33:54;30.52;;;20.67;;
50773;SDS011;36745;48.544;8.918;2023-03-01T13:37:22;49.28;;;30.83;;
50773;SDS011;36745;48.544;8.918;2023-03-01T13:47:43;29.05;;;19.10;;
50773;SDS011;36745;48.544;8.918;2023-03-01T13:51:07;27.85;;;18.23;;
50773;SDS011;36745;48.544;8.918;2023-03-01T13:54:30;28.55;;;18.65;;
50773;SDS011;36745;48.544;8.918;2023-03-01T13:57:56;28.05;;;19.63;;
50773;SDS011;36745;48.544;8.918;2023-03-01T14:04:55;31.60;;;20.17;;
50773;SDS011;36745;48.544;8.918;2023-03-01T14:08:20;28.08;;;17.90;;
50773;SDS011;36745;48.544;8.918;2023-03-01T14:15:46;28.23;;;17.98;;
50773;SDS011;36745;48.544;8.918;2023-03-01T14:19:29;29.35;;;18.50;;
50773;SDS011;36745;48.544;8.918;2023-03-01T14:22:52;34.47;;;20.02;;
50773;SDS011;36745;48.544;8.918;2023-03-01T14:26:13;26.83;;;17.65;;
50773;SDS011;36745;48.544;8.918;2023-03-01T14:29:40;30.08;;;19.35;;
50773;SDS011;36745;48.544;8.918;2023-03-01T14:33:01;27.55;;;18.60;;
50773;SDS011;36745;48.544;8.918;2023-03-01T14:36:26;32.15;;;19.65;;
50773;SDS011;36745;48.544;8.918;2023-03-01T14:39:51;29.10;;;19.00;;
50773;SDS011;36745;48.544;8.918;2023-03-01T14:43:13;28.27;;;18.60;;
50773;SDS011;36745;48.544;8.918;2023-03-01T14:46:43;28.48;;;18.92;;
50773;SDS011;36745;48.544;8.918;2023-03-01T14:50:08;27.13;;;18.52;;
50773;SDS011;36745;48.544;8.918;2023-03-01T14:53:35;28.30;;;19.08;;
50773;SDS011;36745;48.544;8.918;2023-03-01T14:56:59;27.98;;;19.40;;
50773;SDS011;36745;48.544;8.918;2023-03-01T15:00:21;29.42;;;18.52;;
50773;SDS011;36745;48.544;8.918;2023-03-01T15:03:47;25.30;;;16.15;;
50773;SDS011;36745;48.544;8.918;2023-03-01T15:07:09;25.58;;;18.52;;
50773;SDS011;36745;48.544;8.918;2023-03-01T15:10:33;26.38;;;17.30;;
50773;SDS011;36745;48.544;8.918;2023-03-01T15:13:55;24.58;;;16.70;;
50773;SDS011;36745;48.544;8.918;2023-03-01T15:20:55;27.33;;;17.50;;
50773;SDS011;36745;48.544;8.918;2023-03-01T15:24:24;29.42;;;19.58;;
50773;SDS011;36745;48.544;8.918;2023-03-01T15:27:47;33.03;;;20.83;;
50773;SDS011;36745;48.544;8.918;2023-03-01T15:31:17;33.75;;;20.85;;
50773;SDS011;36745;48.544;8.918;2023-03-01T15:34:40;31.88;;;19.98;;
50773;SDS011;36745;48.544;8.918;2023-03-01T15:38:00;30.83;;;20.17;;
50773;SDS011;36745;48.544;8.918;2023-03-01T15:45:06;35.50;;;20.65;;
50773;SDS011;36745;48.544;8.918;2023-03-01T15:48:28;30.48;;;19.45;;
50773;SDS011;36745;48.544;8.918;2023-03-01T15:51:47;32.80;;;21.45;;
50773;SDS011;36745;48.544;8.918;2023-03-01T15:58:41;33.95;;;21.88;;
50773;SDS011;36745;48.544;8.918;2023-03-01T16:02:01;38.25;;;21.45;;
50773;SDS011;36745;48.544;8.918;2023-03-01T16:08:42;32.47;;;20.63;;
50773;SDS011;36745;48.544;8.918;2023-03-01T16:12:02;29.50;;;19.95;;
50773;SDS011;36745;48.544;8.918;2023-03-01T16:15:26;34.28;;;20.63;;
50773;SDS011;36745;48.544;8.918;2023-03-01T16:18:50;34.85;;;19.88;;
50773;SDS011;36745;48.544;8.918;2023-03-01T16:22:11;28.00;;;18.70;;
50773;SDS011;36745;48.544;8.918;2023-03-01T16:25:31;32.55;;;20.80;;
50773;SDS011;36745;48.544;8.918;2023-03-01T16:28:53;34.17;;;22.52;;
50773;SDS011;36745;48.544;8.918;2023-03-01T16:32:14;37.70;;;21.80;;
50773;SDS011;36745;48.544;8.918;2023-03-01T16:35:39;34.70;;;21.77;;
50773;SDS011;36745;48.544;8.918;2023-03-01T16:38:59;35.78;;;21.48;;
50773;SDS011;36745;48.544;8.918;2023-03-01T16:42:19;37.45;;;22.08;;
50773;SDS011;36745;48.544;8.918;2023-03-01T16:45:39;40.72;;;23.10;;
50773;SDS011;36745;48.544;8.918;2023-03-01T16:48:59;33.63;;;21.83;;
50773;SDS011;36745;48.544;8.918;2023-03-01T16:52:20;38.53;;;22.33;;
50773;SDS011;36745;48.544;8.918;2023-03-01T16:55:40;35.05;;;22.85;;
50773;SDS011;36745;48.544;8.918;2023-03-01T16:59:04;33.05;;;22.00;;
50773;SDS011;36745;48.544;8.918;2023-03-01T17:02:24;34.42;;;22.25;;
50773;SDS011;36745;48.544;8.918;2023-03-01T17:05:45;35.85;;;23.25;;
50773;SDS011;36745;48.544;8.918;2023-03-01T17:09:05;41.53;;;22.63;;
50773;SDS011;36745;48.544;8.918;2023-03-01T17:12:24;41.95;;;21.98;;
50773;SDS011;36745;48.544;8.918;2023-03-01T17:15:44;37.10;;;23.33;;
50773;SDS011;36745;48.544;8.918;2023-03-01T17:19:04;36.75;;;22.40;;
50773;SDS011;36745;48.544;8.918;2023-03-01T17:22:24;39.78;;;22.52;;
50773;SDS011;36745;48.544;8.918;2023-03-01T17:25:44;35.80;;;22.20;;
50773;SDS011;36745;48.544;8.918;2023-03-01T17:29:04;39.63;;;23.60;;
50773;SDS011;36745;48.544;8.918;2023-03-01T17:32:25;36.10;;;21.83;;
50773;SDS011;36745;48.544;8.918;2023-03-01T17:35:45;33.40;;;22.60;;
50773;SDS011;36745;48.544;8.918;2023-03-01T17:39:05;38.17;;;26.30;;
50773;SDS011;36745;48.544;8.918;2023-03-01T17:42:25;35.03;;;22.13;;
50773;SDS011;36745;48.544;8.918;2023-03-01T17:45:45;40.95;;;23.77;;
50773;SDS011;36745;48.544;8.918;2023-03-01T17:49:09;34.45;;;22.40;;
50773;SDS011;36745;48.544;8.918;2023-03-01T17:52:29;34.65;;;21.75;;
50773;SDS011;36745;48.544;8.918;2023-03-01T17:55:49;37.65;;;22.98;;
50773;SDS011;36745;48.544;8.918;2023-03-01T17:59:18;32.40;;;21.45;;
50773;SDS011;36745;48.544;8.918;2023-03-01T18:02:38;36.25;;;21.13;;
50773;SDS011;36745;48.544;8.918;2023-03-01T18:05:58;38.80;;;22.67;;
50773;SDS011;36745;48.544;8.918;2023-03-01T18:09:18;33.72;;;22.30;;
50773;SDS011;36745;48.544;8.918;2023-03-01T18:12:38;42.97;;;22.60;;
50773;SDS011;36745;48.544;8.918;2023-03-01T18:15:58;41.17;;;22.48;;
50773;SDS011;36745;48.544;8.918;2023-03-01T18:19:19;36.47;;;22.02;;
50773;SDS011;36745;48.544;8.918;2023-03-01T18:22:39;40.40;;;25.58;;
50773;SDS011;36745;48.544;8.918;2023-03-01T18:26:00;41.38;;;27.52;;
50773;SDS011;36745;48.544;8.918;2023-03-01T18:29:21;49.78;;;30.30;;
50773;SDS011;36745;48.544;8.918;2023-03-01T18:32:40;42.10;;;25.60;;
50773;SDS011;36745;48.544;8.918;2023-03-01T18:36:03;43.83;;;23.67;;
50773;SDS011;36745;48.544;8.918;2023-03-01T18:39:24;40.53;;;25.98;;
50773;SDS011;36745;48.544;8.918;2023-03-01T18:42:44;44.50;;;26.90;;
50773;SDS011;36745;48.544;8.918;2023-03-01T18:46:04;40.65;;;25.75;;
50773;SDS011;36745;48.544;8.918;2023-03-01T18:49:24;53.53;;;29.70;;
50773;SDS011;36745;48.544;8.918;2023-03-01T18:52:44;41.38;;;24.80;;
50773;SDS011;36745;48.544;8.918;2023-03-01T18:56:05;43.22;;;24.65;;
50773;SDS011;36745;48.544;8.918;2023-03-01T18:59:26;35.85;;;23.30;;
50773;SDS011;36745;48.544;8.918;2023-03-01T19:02:46;38.05;;;23.55;;
50773;SDS011;36745;48.544;8.918;2023-03-01T19:06:06;38.15;;;24.45;;
50773;SDS011;36745;48.544;8.918;2023-03-01T19:09:25;43.80;;;24.65;;
50773;SDS011;36745;48.544;8.918;2023-03-01T19:12:46;38.53;;;23.05;;
50773;SDS011;36745;48.544;8.918;2023-03-01T19:16:06;36.97;;;23.60;;
50773;SDS011;36745;48.544;8.918;2023-03-01T19:19:28;44.05;;;27.73;;
50773;SDS011;36745;48.544;8.918;2023-03-01T19:22:48;45.35;;;26.33;;
50773;SDS011;36745;48.544;8.918;2023-03-01T19:26:09;37.40;;;24.00;;
50773;SDS011;36745;48.544;8.918;2023-03-01T19:29:31;36.25;;;22.65;;
50773;SDS011;36745;48.544;8.918;2023-03-01T19:32:51;42.13;;;25.60;;
50773;SDS011;36745;48.544;8.918;2023-03-01T19:36:12;36.22;;;22.77;;
50773;SDS011;36745;48.544;8.918;2023-03-01T19:39:32;35.60;;;22.60;;
50773;SDS011;36745;48.544;8.918;2023-03-01T19:42:52;39.20;;;22.52;;
50773;SDS011;36745;48.544;8.918;2023-03-01T19:46:12;37.60;;;22.85;;
50773;SDS011;36745;48.544;8.918;2023-03-01T19:49:33;38.88;;;22.45;;
50773;SDS011;36745;48.544;8.918;2023-03-01T19:52:55;35.03;;;22.73;;
50773;SDS011;36745;48.544;8.918;2023-03-01T19:56:15;36.85;;;21.92;;
50773;SDS011;36745;48.544;8.918;2023-03-01T19:59:35;34.50;;;20.77;;
50773;SDS011;36745;48.544;8.918;2023-03-01T20:02:55;36.17;;;22.85;;
50773;SDS011;36745;48.544;8.918;2023-03-01T20:06:16;39.28;;;23.20;;
50773;SDS011;36745;48.544;8.918;2023-03-01T20:09:38;40.58;;;24.98;;
50773;SDS011;36745;48.544;8.918;2023-03-01T20:12:59;37.63;;;22.20;;
50773;SDS011;36745;48.544;8.918;2023-03-01T20:16:22;36.50;;;21.80;;
50773;SDS011;36745;48.544;8.918;2023-03-01T20:19:44;33.83;;;22.02;;
50773;SDS011;36745;48.544;8.918;2023-03-01T20:23:04;38.03;;;21.83;;
50773;SDS011;36745;48.544;8.918;2023-03-01T20:26:24;42.42;;;24.75;;
50773;SDS011;36745;48.544;8.918;2023-03-01T20:29:45;36.95;;;21.98;;
50773;SDS011;36745;48.544;8.918;2023-03-01T20:33:04;35.95;;;21.65;;
50773;SDS011;36745;48.544;8.918;2023-03-01T20:36:25;34.70;;;21.60;;
50773;SDS011;36745;48.544;8.918;2023-03-01T20:39:45;36.05;;;22.42;;
50773;SDS011;36745;48.544;8.918;2023-03-01T20:43:05;32.65;;;20.10;;
50773;SDS011;36745;48.544;8.918;2023-03-01T20:46:25;37.30;;;20.75;;
50773;SDS011;36745;48.544;8.918;2023-03-01T20:49:45;36.42;;;21.77;;
50773;SDS011;36745;48.544;8.918;2023-03-01T20:53:05;40.00;;;23.80;;
50773;SDS011;36745;48.544;8.918;2023-03-01T20:56:24;38.22;;;22.55;;
50773;SDS011;36745;48.544;8.918;2023-03-01T20:59:45;39.83;;;22.88;;
50773;SDS011;36745;48.544;8.918;2023-03-01T21:03:08;37.63;;;21.63;;
50773;SDS011;36745;48.544;8.918;2023-03-01T21:06:28;42.20;;;23.25;;
50773;SDS011;36745;48.544;8.918;2023-03-01T21:09:49;40.05;;;23.73;;
50773;SDS011;36745;48.544;8.918;2023-03-01T21:13:09;39.58;;;24.17;;
50773;SDS011;36745;48.544;8.918;2023-03-01T21:16:38;44.10;;;23.95;;
50773;SDS011;36745;48.544;8.918;2023-03-01T21:19:58;41.85;;;23.27;;
50773;SDS011;36745;48.544;8.918;2023-03-01T21:23:18;46.92;;;25.10;;
50773;SDS011;36745;48.544;8.918;2023-03-01T21:26:37;43.17;;;24.02;;
50773;SDS011;36745;48.544;8.918;2023-03-01T21:29:57;49.38;;;26.15;;